Port Heiden, Alaska
Current Conditions -  °F | °C
As of 7:56 PM on Wednesday 22 Oct 2014 (Local Time) from PAPH Reporting Station
Clear Clear  
Wind Chill: 30°   Ceiling: Unl
Heat Index: 39°   Visibility: 10mi
Dew Point: 28°   Wind: 18mph
Humidity: 65%   Direction: 320°NW
Pressure: 29.78"   Gusts: NA
Location:  56.95°N, 158.63°W
Report Text: PAPH 230356Z AUTO 32016KT 10SM CLR 04/M02 A2978 RMK AO1
Loading
Personal Weather Stations






























Interactive Weather Map New forecast layout! Learn more

10-Day Weather Forecast

Advertisements
Track Severe Weather on mobile